Time;durP1;ratioP1;P1;durP2;ratioP2;P2;SDS_P1;SDS_P2;PMS_P1;PMS_P2;Temp;Humidity;BMP_temperature;BMP_pressure;BME280_temperature;BME280_humidity;BME280_pressure;Samples;Min_cycle;Max_cycle;Signal;HPM_P1;HPM_P2
2023/03/03 00:00:54;;;;;;;84.05;39.95;;;1.70;99.90;;;;;;4342088;28;10001074;-77
2023/03/03 00:03:27;;;;;;;90.10;43.45;;;1.70;99.90;;;;;;5067606;28;20045;-77
2023/03/03 00:05:54;;;;;;;85.03;40.75;;;1.70;99.90;;;;;;5047979;28;20037;-78
2023/03/03 00:08:31;;;;;;;85.57;41.28;;;1.70;99.90;;;;;;5055079;28;20586;-78
2023/03/03 00:11:05;;;;;;;87.57;40.13;;;1.70;99.90;;;;;;5046486;28;20194;-78
2023/03/03 00:13:51;;;;;;;90.30;41.17;;;1.70;99.90;;;;;;5061673;28;20171;-78
2023/03/03 00:16:39;;;;;;;79.72;39.35;;;1.70;99.90;;;;;;5058302;28;20373;-77
2023/03/03 00:19:22;;;;;;;84.82;40.65;;;1.70;99.90;;;;;;5053694;28;20055;-77
2023/03/03 00:21:58;;;;;;;90.13;41.53;;;1.60;99.90;;;;;;5052100;28;20711;-76
2023/03/03 00:24:41;;;;;;;88.25;41.60;;;1.60;99.90;;;;;;5052912;28;20032;-77
2023/03/03 00:27:28;;;;;;;97.15;42.60;;;1.60;99.90;;;;;;5053603;28;20029;-77
2023/03/03 00:30:03;;;;;;;87.90;41.53;;;1.60;99.90;;;;;;5049638;28;20040;-77
2023/03/03 00:32:46;;;;;;;90.68;42.10;;;1.50;99.90;;;;;;5059178;28;20504;-77
2023/03/03 00:35:44;;;;;;;86.57;39.60;;;1.50;99.90;;;;;;5044462;28;20056;-78
2023/03/03 00:38:27;;;;;;;84.35;38.92;;;1.50;99.90;;;;;;5044255;28;20017;-77
2023/03/03 00:40:57;;;;;;;84.10;39.38;;;1.50;99.90;;;;;;5032771;28;20512;-78
2023/03/03 00:43:34;;;;;;;89.22;40.40;;;1.50;99.90;;;;;;5043643;28;20037;-78
2023/03/03 00:46:16;;;;;;;88.35;39.70;;;1.50;99.90;;;;;;5049020;28;20029;-77
2023/03/03 00:48:51;;;;;;;86.13;39.00;;;1.50;99.90;;;;;;5046941;28;20800;-78
2023/03/03 00:51:34;;;;;;;78.70;37.58;;;1.50;99.90;;;;;;5039322;28;20024;-78
2023/03/03 00:54:00;;;;;;;84.00;38.10;;;1.40;99.90;;;;;;5045266;28;20056;-78
2023/03/03 00:56:30;;;;;;;80.63;37.35;;;1.40;99.90;;;;;;5051181;28;20032;-77
2023/03/03 00:59:00;;;;;;;80.05;36.33;;;1.40;99.90;;;;;;5038044;28;20036;-77
2023/03/03 01:01:28;;;;;;;78.60;36.65;;;1.40;99.90;;;;;;5040124;28;20033;-77
2023/03/03 01:04:01;;;;;;;89.40;36.90;;;1.40;99.90;;;;;;5046115;28;20037;-77
2023/03/03 01:06:34;;;;;;;77.25;36.05;;;1.40;99.90;;;;;;5042232;28;20073;-77
2023/03/03 01:09:04;;;;;;;75.57;35.47;;;1.40;99.90;;;;;;5042630;28;20673;-77
2023/03/03 01:11:38;;;;;;;79.25;35.13;;;1.40;99.90;;;;;;5041735;28;20039;-77
2023/03/03 01:14:05;;;;;;;77.85;36.17;;;1.40;99.90;;;;;;5046786;28;20109;-77
2023/03/03 01:16:41;;;;;;;70.47;32.88;;;1.30;99.90;;;;;;5045857;28;20049;-77
2023/03/03 01:19:07;;;;;;;80.82;36.60;;;1.30;99.90;;;;;;5046505;28;20021;-77
2023/03/03 01:21:42;;;;;;;78.82;35.88;;;1.30;99.90;;;;;;5044063;28;20515;-77
2023/03/03 01:24:10;;;;;;;68.85;33.55;;;1.30;99.90;;;;;;5036734;28;20025;-77
2023/03/03 01:26:45;;;;;;;75.80;34.60;;;1.30;99.90;;;;;;5046856;28;20056;-77
2023/03/03 01:29:15;;;;;;;70.22;34.30;;;1.20;99.90;;;;;;5030977;28;20299;-77
2023/03/03 01:31:50;;;;;;;71.13;33.08;;;1.20;99.90;;;;;;5046124;28;20413;-77
2023/03/03 01:34:21;;;;;;;71.65;31.35;;;1.20;99.90;;;;;;5043721;28;20025;-77
2023/03/03 01:36:54;;;;;;;75.03;31.55;;;1.20;99.90;;;;;;5045908;28;20029;-78
2023/03/03 01:39:22;;;;;;;67.40;31.58;;;1.20;99.90;;;;;;5045539;28;20025;-77
2023/03/03 01:41:53;;;;;;;67.85;31.50;;;1.20;99.90;;;;;;5044635;28;20104;-78
2023/03/03 01:44:20;;;;;;;69.03;31.75;;;1.20;99.90;;;;;;5040349;28;20108;-77
2023/03/03 01:47:13;;;;;;;69.13;32.45;;;1.20;99.90;;;;;;5047219;28;20029;-78
2023/03/03 01:49:51;;;;;;;48.70;22.97;;;1.20;99.90;;;;;;5047736;28;20044;-78
2023/03/03 01:52:41;;;;;;;66.55;30.63;;;1.20;99.90;;;;;;5045017;28;20028;-78
2023/03/03 01:55:26;;;;;;;70.13;32.10;;;1.20;99.90;;;;;;5043391;28;20041;-78
2023/03/03 01:58:10;;;;;;;66.10;30.60;;;1.20;99.90;;;;;;5050136;28;20041;-78
2023/03/03 02:00:45;;;;;;;68.97;31.35;;;1.20;99.90;;;;;;5038975;28;20045;-78
2023/03/03 02:03:20;;;;;;;76.05;33.08;;;1.20;99.90;;;;;;5035674;28;20120;-78
2023/03/03 02:05:59;;;;;;;74.75;32.30;;;1.20;99.90;;;;;;5048363;28;20032;-77
2023/03/03 02:08:54;;;;;;;71.22;32.10;;;1.20;99.90;;;;;;5039954;28;20029;-79
2023/03/03 02:11:30;;;;;;;73.95;32.42;;;1.20;99.90;;;;;;5042293;28;20037;-78
2023/03/03 02:14:04;;;;;;;72.68;33.83;;;1.20;99.90;;;;;;5045855;28;20024;-78
2023/03/03 02:16:37;;;;;;;69.10;31.13;;;1.20;99.90;;;;;;5052857;28;20494;-78
2023/03/03 02:19:08;;;;;;;70.30;32.15;;;1.20;99.90;;;;;;5034947;28;20580;-78
2023/03/03 02:21:36;;;;;;;66.50;31.13;;;1.20;99.90;;;;;;5035899;28;20092;-78
2023/03/03 02:24:15;;;;;;;73.43;32.67;;;1.20;99.90;;;;;;5045637;28;20037;-78
2023/03/03 02:26:45;;;;;;;79.25;33.50;;;1.20;99.90;;;;;;5045311;28;20033;-77
2023/03/03 02:29:14;;;;;;;79.88;34.22;;;1.20;99.90;;;;;;5039819;28;20018;-78
2023/03/03 02:31:45;;;;;;;73.28;33.08;;;1.20;99.90;;;;;;5046277;28;20482;-77
2023/03/03 02:34:16;;;;;;;68.63;31.65;;;1.20;99.90;;;;;;5038678;28;20065;-77
2023/03/03 02:36:46;;;;;;;74.68;33.80;;;1.20;99.90;;;;;;5037723;28;20499;-77
2023/03/03 02:39:22;;;;;;;80.90;34.20;;;1.20;99.90;;;;;;5043712;28;20029;-77
2023/03/03 02:41:54;;;;;;;77.55;33.22;;;1.20;99.90;;;;;;5035454;28;20035;-78
2023/03/03 02:44:23;;;;;;;73.55;33.78;;;1.20;99.90;;;;;;5028666;28;20037;-77
2023/03/03 02:46:52;;;;;;;77.28;34.13;;;1.20;99.90;;;;;;5039502;28;20044;-77
2023/03/03 02:49:31;;;;;;;73.85;32.70;;;1.20;99.90;;;;;;5040953;28;20635;-78
2023/03/03 02:52:01;;;;;;;74.07;33.78;;;1.20;99.90;;;;;;5039763;28;20036;-78
2023/03/03 02:54:37;;;;;;;77.00;34.42;;;1.20;99.90;;;;;;5042573;28;20204;-77
2023/03/03 02:57:11;;;;;;;79.07;34.67;;;1.20;99.90;;;;;;5044354;28;20450;-78
2023/03/03 02:59:37;;;;;;;71.22;31.58;;;1.20;99.90;;;;;;5044292;28;20060;-78
2023/03/03 03:02:12;;;;;;;73.93;32.05;;;1.20;99.90;;;;;;5041495;28;20028;-78
2023/03/03 03:04:39;;;;;;;70.13;31.95;;;1.20;99.90;;;;;;5039689;28;20547;-77
2023/03/03 03:07:11;;;;;;;68.22;31.08;;;1.20;99.90;;;;;;5043661;28;20037;-78
2023/03/03 03:09:41;;;;;;;66.88;31.60;;;1.20;99.90;;;;;;5040472;28;20032;-78
2023/03/03 03:12:11;;;;;;;65.03;30.10;;;1.20;99.90;;;;;;5045938;28;20029;-78
2023/03/03 03:14:41;;;;;;;65.28;30.35;;;1.20;99.90;;;;;;5045378;28;20172;-78
2023/03/03 03:17:11;;;;;;;62.60;29.73;;;1.20;99.90;;;;;;5044103;28;20029;-78
2023/03/03 03:19:43;;;;;;;70.80;31.17;;;1.20;99.90;;;;;;5036658;28;20159;-78
2023/03/03 03:22:18;;;;;;;73.07;31.42;;;1.20;99.90;;;;;;5047436;28;20031;-78
2023/03/03 03:24:52;;;;;;;68.20;31.10;;;1.20;99.90;;;;;;5046053;28;20101;-77
2023/03/03 03:27:22;;;;;;;66.50;30.48;;;1.20;99.90;;;;;;5036878;28;20032;-78
2023/03/03 03:29:57;;;;;;;62.83;30.33;;;1.20;99.90;;;;;;5041029;28;20597;-78
2023/03/03 03:32:25;;;;;;;64.25;29.17;;;1.20;99.90;;;;;;5038919;28;20437;-78
2023/03/03 03:34:59;;;;;;;72.00;31.52;;;1.20;99.90;;;;;;5049184;28;20596;-78
2023/03/03 03:37:37;;;;;;;67.28;30.80;;;1.20;99.90;;;;;;5042230;28;20021;-78
2023/03/03 03:40:03;;;;;;;62.08;29.48;;;1.20;99.90;;;;;;5044473;28;20032;-78
2023/03/03 03:42:40;;;;;;;59.47;27.38;;;1.20;99.90;;;;;;5058459;28;20025;-78
2023/03/03 03:45:09;;;;;;;61.35;28.58;;;1.20;99.90;;;;;;5059218;28;20037;-78
2023/03/03 03:47:37;;;;;;;53.08;25.65;;;1.20;99.90;;;;;;5050020;28;20029;-78
2023/03/03 03:50:05;;;;;;;54.92;27.30;;;1.20;99.90;;;;;;5059067;28;20072;-78
2023/03/03 03:52:31;;;;;;;53.70;26.17;;;1.20;99.90;;;;;;5055841;28;20029;-78
2023/03/03 03:55:02;;;;;;;51.85;25.52;;;1.20;99.90;;;;;;5044407;28;20048;-78
2023/03/03 03:57:35;;;;;;;51.53;25.58;;;1.10;99.90;;;;;;5059006;28;20132;-78
2023/03/03 04:00:06;;;;;;;49.45;24.23;;;1.10;99.90;;;;;;5055536;28;20398;-78
2023/03/03 04:02:35;;;;;;;49.05;24.25;;;1.10;99.90;;;;;;5057605;28;20045;-78
2023/03/03 04:05:08;;;;;;;50.83;24.95;;;1.10;99.90;;;;;;5044639;28;20033;-78
2023/03/03 04:07:43;;;;;;;49.33;23.98;;;1.10;99.90;;;;;;5053643;28;20017;-78
2023/03/03 04:10:14;;;;;;;46.97;22.65;;;1.10;99.90;;;;;;5054495;28;20044;-77
2023/03/03 04:12:51;;;;;;;47.33;22.48;;;1.10;99.90;;;;;;5059933;28;20024;-76
2023/03/03 04:15:17;;;;;;;45.72;22.10;;;1.10;99.90;;;;;;5060075;28;20541;-78
2023/03/03 04:17:51;;;;;;;47.17;24.05;;;1.10;99.90;;;;;;5045788;28;20622;-78
2023/03/03 04:20:19;;;;;;;50.33;23.70;;;1.10;99.90;;;;;;5053735;28;20474;-78
2023/03/03 04:22:56;;;;;;;45.35;22.70;;;1.10;99.90;;;;;;5044129;28;20036;-78
2023/03/03 04:25:23;;;;;;;51.35;24.30;;;1.10;99.90;;;;;;5046680;28;20029;-78
2023/03/03 04:27:57;;;;;;;50.80;23.58;;;1.10;99.90;;;;;;5044626;28;20017;-78
2023/03/03 04:30:27;;;;;;;50.08;24.42;;;1.00;99.90;;;;;;5051982;28;20040;-78
2023/03/03 04:33:02;;;;;;;48.45;23.98;;;1.00;99.90;;;;;;5053549;28;20045;-78
2023/03/03 04:35:30;;;;;;;45.53;23.23;;;1.00;99.90;;;;;;5050884;28;20032;-78
2023/03/03 04:38:04;;;;;;;45.70;22.95;;;1.00;99.90;;;;;;5039652;28;20159;-78
2023/03/03 04:40:32;;;;;;;48.15;22.80;;;1.00;99.90;;;;;;5043348;28;20116;-78
2023/03/03 04:43:06;;;;;;;47.38;22.23;;;1.00;99.90;;;;;;5037880;28;20100;-77
2023/03/03 04:45:34;;;;;;;45.50;21.48;;;1.00;99.90;;;;;;5035497;28;20029;-78
2023/03/03 04:48:16;;;;;;;41.03;19.98;;;1.00;99.90;;;;;;5040528;28;20130;-78
2023/03/03 04:50:45;;;;;;;41.37;21.00;;;1.00;99.90;;;;;;5051466;28;20123;-77
2023/03/03 04:53:27;;;;;;;42.50;20.48;;;0.90;99.90;;;;;;5046217;28;20272;-78
2023/03/03 04:56:01;;;;;;;40.58;20.20;;;0.90;99.90;;;;;;5037186;28;20025;-77
2023/03/03 04:58:34;;;;;;;40.85;20.67;;;0.90;99.90;;;;;;5044637;28;20366;-78
2023/03/03 05:01:00;;;;;;;41.65;21.83;;;0.80;99.90;;;;;;5038291;28;20045;-77
2023/03/03 05:03:30;;;;;;;44.88;22.15;;;0.80;99.90;;;;;;5043699;28;20033;-78
2023/03/03 05:06:04;;;;;;;43.10;20.50;;;0.80;99.90;;;;;;5042633;28;20063;-78
2023/03/03 05:08:36;;;;;;;42.33;20.30;;;0.80;99.90;;;;;;5035847;28;20037;-78
2023/03/03 05:11:09;;;;;;;42.40;20.35;;;0.80;99.90;;;;;;5038511;28;20117;-78
2023/03/03 05:13:43;;;;;;;38.97;19.73;;;0.80;99.90;;;;;;5040041;28;20021;-78
2023/03/03 05:16:15;;;;;;;35.25;18.38;;;0.80;99.90;;;;;;5046970;28;20445;-78
2023/03/03 05:18:47;;;;;;;38.57;19.97;;;0.80;99.90;;;;;;5048950;28;20041;-78
2023/03/03 05:21:20;;;;;;;39.88;20.10;;;0.80;99.90;;;;;;5048016;28;20029;-78
2023/03/03 05:23:49;;;;;;;;;;;0.70;99.90;;;;;;5037302;28;20393;-78
2023/03/03 05:26:23;;;;;;;36.97;18.90;;;0.70;99.90;;;;;;5051622;28;19913;-78
2023/03/03 05:28:52;;;;;;;37.78;19.40;;;0.70;99.90;;;;;;5040534;28;20044;-78
2023/03/03 05:31:24;;;;;;;36.13;18.33;;;0.70;99.90;;;;;;5041290;28;20025;-77
2023/03/03 05:33:59;;;;;;;41.08;20.95;;;0.70;99.90;;;;;;5037491;28;20037;-77
2023/03/03 05:36:31;;;;;;;43.83;21.05;;;0.70;99.90;;;;;;5044904;28;20520;-78
2023/03/03 05:39:05;;;;;;;40.67;19.45;;;0.60;99.90;;;;;;5046257;28;20108;-78
2023/03/03 05:41:39;;;;;;;40.10;19.52;;;0.60;99.90;;;;;;5035458;28;20067;-78
2023/03/03 05:44:13;;;;;;;41.08;19.63;;;0.70;99.90;;;;;;5041352;28;20035;-76
2023/03/03 05:46:43;;;;;;;39.03;20.67;;;0.70;99.90;;;;;;5038023;28;20104;-78
2023/03/03 05:49:12;;;;;;;40.28;20.83;;;0.70;99.90;;;;;;5040246;28;20025;-78
2023/03/03 05:51:46;;;;;;;46.95;20.27;;;0.70;99.90;;;;;;5040795;28;20756;-78
2023/03/03 05:54:17;;;;;;;42.22;20.45;;;0.70;99.90;;;;;;5043590;28;20107;-77
2023/03/03 05:56:58;;;;;;;43.97;21.48;;;0.70;99.90;;;;;;5041802;28;20021;-77
2023/03/03 05:59:30;;;;;;;43.55;20.85;;;0.70;99.90;;;;;;5039702;28;20037;-77
2023/03/03 06:01:56;;;;;;;48.75;24.45;;;0.70;99.90;;;;;;5057452;28;20043;-78
2023/03/03 06:04:31;;;;;;;46.13;23.77;;;0.70;99.90;;;;;;5047961;28;20116;-77
2023/03/03 06:07:06;;;;;;;52.42;25.00;;;0.70;99.90;;;;;;5041805;28;20389;-78
2023/03/03 06:09:38;;;;;;;51.42;23.98;;;0.70;99.90;;;;;;5043046;28;20037;-78
2023/03/03 06:12:10;;;;;;;55.57;25.93;;;0.70;99.90;;;;;;5052082;28;20406;-76
2023/03/03 06:14:37;;;;;;;60.50;25.90;;;0.70;99.90;;;;;;5038493;28;20030;-77
2023/03/03 06:17:13;;;;;;;52.28;23.70;;;0.70;99.90;;;;;;5042158;28;20072;-77
2023/03/03 06:19:47;;;;;;;42.60;20.55;;;0.70;99.90;;;;;;5045684;28;20025;-77
2023/03/03 06:22:25;;;;;;;39.35;19.55;;;0.70;99.90;;;;;;5043853;28;20033;-77
2023/03/03 06:24:59;;;;;;;38.47;19.23;;;0.70;99.90;;;;;;5042620;28;20072;-78
2023/03/03 06:27:32;;;;;;;45.65;20.13;;;0.60;99.90;;;;;;5045653;28;20045;-77
2023/03/03 06:30:08;;;;;;;51.03;19.38;;;0.60;99.90;;;;;;5046786;28;20111;-77
2023/03/03 06:32:38;;;;;;;43.00;19.23;;;0.60;99.90;;;;;;5034211;28;20493;-78
2023/03/03 06:35:12;;;;;;;39.47;19.60;;;0.60;99.90;;;;;;5049589;28;20477;-77
2023/03/03 06:37:40;;;;;;;44.05;21.02;;;0.60;99.90;;;;;;5038997;28;20033;-78
2023/03/03 06:40:10;;;;;;;44.05;20.02;;;0.60;99.90;;;;;;5040687;28;20047;-79
2023/03/03 06:42:40;;;;;;;42.58;20.33;;;0.60;99.90;;;;;;5039476;28;20416;-77
2023/03/03 06:45:07;;;;;;;40.90;19.85;;;0.60;99.90;;;;;;5046334;28;20032;-78
2023/03/03 06:47:35;;;;;;;42.50;19.58;;;0.60;99.90;;;;;;5034154;28;20048;-79
2023/03/03 06:50:01;;;;;;;43.20;19.23;;;0.70;99.90;;;;;;5028251;28;20033;-79
2023/03/03 06:52:27;;;;;;;44.45;19.45;;;0.60;99.90;;;;;;5039151;28;20698;-78
2023/03/03 06:54:58;;;;;;;41.20;19.63;;;0.60;99.90;;;;;;5038467;28;20029;-78
2023/03/03 06:57:33;;;;;;;39.90;20.13;;;0.60;99.90;;;;;;5044195;28;20059;-78
2023/03/03 07:00:19;;;;;;;43.05;20.98;;;0.50;99.90;;;;;;5037081;28;20025;-78
2023/03/03 07:02:52;;;;;;;43.15;20.27;;;0.50;99.90;;;;;;5039279;28;20497;-78
2023/03/03 07:05:19;;;;;;;38.92;18.85;;;0.50;99.90;;;;;;5040742;28;20520;-77
2023/03/03 07:07:46;;;;;;;37.42;17.65;;;0.50;99.90;;;;;;5033181;28;20033;-78
2023/03/03 07:10:25;;;;;;;32.88;16.77;;;0.60;99.90;;;;;;5031795;28;20036;-78
2023/03/03 07:13:01;;;;;;;37.67;18.17;;;0.60;99.90;;;;;;5040826;28;20029;-78
2023/03/03 07:15:35;;;;;;;44.97;19.90;;;0.50;99.90;;;;;;5047485;28;20025;-78
2023/03/03 07:18:06;;;;;;;37.88;18.65;;;0.60;99.90;;;;;;5034204;28;20027;-78
2023/03/03 07:20:39;;;;;;;34.80;18.15;;;0.60;99.90;;;;;;5039257;28;20108;-78
2023/03/03 07:23:23;;;;;;;34.75;17.42;;;0.60;99.90;;;;;;5040144;28;20037;-78
2023/03/03 07:25:49;;;;;;;32.30;17.05;;;0.60;99.90;;;;;;5043580;28;20120;-78
2023/03/03 07:28:31;;;;;;;36.30;17.02;;;0.60;99.90;;;;;;5042701;28;20033;-78
2023/03/03 07:30:59;;;;;;;27.97;13.60;;;0.60;99.90;;;;;;5046448;28;20036;-77
2023/03/03 07:33:34;;;;;;;34.97;17.73;;;0.70;99.90;;;;;;5045782;28;20318;-78
2023/03/03 07:36:01;;;;;;;38.15;18.70;;;0.70;99.90;;;;;;5040826;28;20481;-78
2023/03/03 07:38:40;;;;;;;43.63;21.02;;;0.70;99.90;;;;;;5040415;28;20481;-78
2023/03/03 07:41:17;;;;;;;43.00;18.98;;;0.60;99.90;;;;;;5039317;28;20028;-77
2023/03/03 07:43:53;;;;;;;37.92;19.05;;;0.60;99.90;;;;;;5039845;28;20425;-78
2023/03/03 07:46:44;;;;;;;34.58;17.08;;;0.70;99.90;;;;;;5042894;28;20051;-77
2023/03/03 07:49:16;;;;;;;37.40;17.55;;;0.70;99.90;;;;;;5047206;28;20059;-78
2023/03/03 07:51:44;;;;;;;34.90;17.40;;;0.70;99.90;;;;;;5035108;28;20643;-78
2023/03/03 07:54:36;;;;;;;37.40;17.83;;;0.80;99.90;;;;;;5037735;28;20119;-78
2023/03/03 07:57:26;;;;;;;33.53;17.65;;;0.80;99.90;;;;;;5040967;28;20108;-77
2023/03/03 08:00:18;;;;;;;35.38;17.20;;;0.80;99.90;;;;;;5037401;28;20549;-76
2023/03/03 08:02:50;;;;;;;33.55;17.02;;;0.80;99.90;;;;;;5040452;28;20087;-77
2023/03/03 08:05:38;;;;;;;32.90;17.15;;;0.80;99.90;;;;;;5036339;28;20113;-77
2023/03/03 08:08:35;;;;;;;32.53;16.13;;;0.90;99.90;;;;;;5043364;28;20032;-78
2023/03/03 08:11:08;;;;;;;34.85;16.52;;;0.90;99.90;;;;;;5043791;28;20067;-77
2023/03/03 08:13:36;;;;;;;31.85;16.05;;;0.90;99.90;;;;;;5046804;28;20036;-78
2023/03/03 08:16:08;;;;;;;36.90;17.00;;;0.90;99.90;;;;;;5056229;28;20116;-77
2023/03/03 08:18:46;;;;;;;27.30;12.50;;;0.90;99.90;;;;;;5036476;28;20422;-78
2023/03/03 08:21:15;;;;;;;34.72;17.77;;;0.90;99.90;;;;;;5041056;28;20291;-78
2023/03/03 08:23:50;;;;;;;33.45;16.85;;;0.90;99.90;;;;;;5045518;28;20037;-78
2023/03/03 08:26:18;;;;;;;33.78;16.35;;;0.90;99.90;;;;;;5039646;28;20039;-78
2023/03/03 08:28:45;;;;;;;33.92;16.00;;;0.90;99.90;;;;;;5029868;28;20045;-78
2023/03/03 08:31:12;;;;;;;29.75;14.98;;;0.90;99.90;;;;;;5039527;28;20029;-78
2023/03/03 08:33:39;;;;;;;35.47;16.63;;;0.80;99.90;;;;;;5040083;28;20051;-78
2023/03/03 08:36:08;;;;;;;32.38;15.95;;;0.80;99.90;;;;;;5036256;28;20025;-78
2023/03/03 08:38:34;;;;;;;31.77;16.35;;;0.80;99.90;;;;;;5045040;28;20032;-78
2023/03/03 08:41:00;;;;;;;33.88;16.05;;;0.90;99.90;;;;;;5054630;28;20400;-77
2023/03/03 08:43:27;;;;;;;31.48;15.23;;;0.90;99.90;;;;;;5048801;28;20072;-78
2023/03/03 08:45:58;;;;;;;28.05;14.93;;;0.90;99.90;;;;;;5056394;28;20028;-78
2023/03/03 08:48:25;;;;;;;29.85;15.88;;;0.90;99.90;;;;;;5043287;28;20032;-78
2023/03/03 08:50:52;;;;;;;30.10;16.00;;;0.90;99.90;;;;;;5047948;28;20090;-77
2023/03/03 08:53:21;;;;;;;34.30;16.73;;;1.00;99.90;;;;;;5062911;28;20513;-77
2023/03/03 08:55:47;;;;;;;37.40;17.95;;;1.00;99.90;;;;;;5037668;28;20040;-78
2023/03/03 08:58:15;;;;;;;31.95;16.05;;;1.10;99.90;;;;;;5057553;28;20025;-77
2023/03/03 09:00:41;;;;;;;33.35;16.92;;;1.10;99.90;;;;;;5043749;28;20484;-77
2023/03/03 09:03:08;;;;;;;34.33;17.80;;;1.10;99.90;;;;;;5061760;28;20641;-77
2023/03/03 09:05:35;;;;;;;35.63;17.92;;;1.10;99.90;;;;;;5048110;28;20060;-78
2023/03/03 09:08:02;;;;;;;37.42;17.58;;;1.20;99.90;;;;;;5048928;28;20056;-77
2023/03/03 09:10:30;;;;;;;32.28;17.50;;;1.20;99.90;;;;;;5037741;28;20017;-77
2023/03/03 09:13:01;;;;;;;30.88;16.10;;;1.20;99.90;;;;;;5040643;28;20033;-78
2023/03/03 09:15:29;;;;;;;32.67;15.85;;;1.20;99.90;;;;;;5047178;28;20044;-77
2023/03/03 09:18:01;;;;;;;31.65;15.63;;;1.30;99.90;;;;;;5045916;28;20036;-78
2023/03/03 09:20:37;;;;;;;32.58;16.55;;;1.30;99.90;;;;;;5043748;28;20143;-78
2023/03/03 09:23:35;;;;;;;31.23;16.48;;;1.30;99.90;;;;;;5049630;28;20043;-78
2023/03/03 09:26:31;;;;;;;28.77;15.40;;;1.30;99.90;;;;;;5027863;28;20041;-78
2023/03/03 09:29:14;;;;;;;28.92;14.98;;;1.30;99.90;;;;;;5039694;28;20033;-81
2023/03/03 09:31:47;;;;;;;28.33;14.93;;;1.40;99.90;;;;;;5038979;28;20039;-86
2023/03/03 09:34:41;;;;;;;;;;;1.40;99.90;;;;;;5039247;28;20052;-83
2023/03/03 09:37:33;;;;;;;24.13;12.18;;;1.40;99.90;;;;;;5043917;28;19909;-85
2023/03/03 09:40:08;;;;;;;34.13;16.40;;;1.40;99.90;;;;;;5040679;28;20489;-79
2023/03/03 09:42:53;;;;;;;29.90;16.45;;;1.50;99.90;;;;;;5035008;28;20033;-87
2023/03/03 09:45:52;;;;;;;31.70;15.85;;;1.50;99.90;;;;;;5051257;28;20115;-84
2023/03/03 09:48:39;;;;;;;29.75;15.48;;;1.60;99.90;;;;;;5040367;28;20400;-80
2023/03/03 09:51:38;;;;;;;30.17;15.30;;;1.60;99.90;;;;;;5050531;28;20123;-80
2023/03/03 09:54:31;;;;;;;27.48;14.40;;;1.60;99.90;;;;;;5049923;28;20039;-86
2023/03/03 09:57:17;;;;;;;27.45;14.50;;;1.60;99.90;;;;;;5040437;28;20489;-85
2023/03/03 10:00:08;;;;;;;29.65;14.43;;;1.60;99.90;;;;;;5039044;28;20044;-80
2023/03/03 10:02:50;;;;;;;27.98;14.25;;;1.60;99.90;;;;;;5040706;28;20523;-81
2023/03/03 10:05:41;;;;;;;27.75;14.93;;;1.70;99.90;;;;;;5041884;28;20151;-80
2023/03/03 10:08:43;;;;;;;25.85;13.25;;;1.70;99.90;;;;;;5041410;28;20132;-84
2023/03/03 10:11:36;;;;;;;26.50;14.00;;;1.80;99.90;;;;;;5039382;28;20033;-82
2023/03/03 10:14:21;;;;;;;30.15;15.30;;;1.80;99.90;;;;;;5035588;28;20090;-84
2023/03/03 10:17:15;;;;;;;27.30;14.30;;;1.90;99.90;;;;;;5051019;28;20039;-81
2023/03/03 10:20:11;;;;;;;24.67;13.38;;;1.90;99.90;;;;;;5041041;28;20037;-84
2023/03/03 10:22:53;;;;;;;25.55;13.15;;;1.90;99.90;;;;;;5043534;28;20053;-83
2023/03/03 10:25:37;;;;;;;25.48;11.95;;;1.90;99.90;;;;;;5040035;28;20036;-83
2023/03/03 10:28:03;;;;;;;27.48;14.38;;;1.90;99.90;;;;;;5041570;28;20024;-86
2023/03/03 10:30:44;;;;;;;28.02;14.32;;;1.90;99.90;;;;;;5041439;28;20028;-83
2023/03/03 10:33:26;;;;;;;26.90;14.55;;;2.00;99.90;;;;;;5036923;28;20045;-83
2023/03/03 10:36:22;;;;;;;30.15;13.82;;;2.00;99.90;;;;;;5045680;28;20094;-83
2023/03/03 10:39:16;;;;;;;27.30;14.75;;;2.00;99.90;;;;;;5047832;28;20519;-82
2023/03/03 10:41:52;;;;;;;29.75;14.95;;;2.10;99.90;;;;;;5037404;28;20460;-81
2023/03/03 10:44:44;;;;;;;30.45;16.08;;;2.10;99.90;;;;;;5043602;28;20043;-84
2023/03/03 10:47:30;;;;;;;25.07;12.73;;;2.20;99.90;;;;;;5038690;28;20132;-83
2023/03/03 10:49:56;;;;;;;30.17;15.90;;;2.20;99.90;;;;;;5054068;28;20032;-81
2023/03/03 10:52:39;;;;;;;33.90;16.67;;;2.30;99.90;;;;;;5047616;28;20025;-81
2023/03/03 10:55:20;;;;;;;31.55;16.10;;;2.30;99.90;;;;;;5042868;28;20095;-75
2023/03/03 10:58:08;;;;;;;33.00;16.58;;;2.30;99.90;;;;;;5058436;28;20069;-74
2023/03/03 11:01:00;;;;;;;30.38;16.50;;;2.40;99.90;;;;;;5052340;28;21114;-75
2023/03/03 11:03:40;;;;;;;33.72;16.33;;;2.40;99.90;;;;;;5039761;28;20021;-73
2023/03/03 11:06:37;;;;;;;34.38;17.23;;;2.50;99.90;;;;;;5037609;28;20045;-72
2023/03/03 11:09:28;;;;;;;28.65;14.90;;;2.50;99.90;;;;;;5046978;28;20028;-72
2023/03/03 11:12:17;;;;;;;27.25;14.50;;;2.50;99.90;;;;;;5049188;28;20029;-72
2023/03/03 11:14:57;;;;;;;28.58;15.35;;;;;;;;;;5039491;28;20098;-73
2023/03/03 11:17:38;;;;;;;25.70;13.45;;;;;;;;;;5059688;28;20124;-73
2023/03/03 11:20:46;;;;;;;27.05;14.70;;;2.80;99.90;;;;;;5038530;28;20109;-73
2023/03/03 11:23:58;;;;;;;33.25;15.95;;;2.80;99.90;;;;;;5036361;28;20056;-73
2023/03/03 11:26:50;;;;;;;30.20;15.43;;;2.70;99.90;;;;;;5019478;28;20505;-73
2023/03/03 11:29:33;;;;;;;29.45;15.80;;;2.80;99.90;;;;;;5045271;28;20120;-73
2023/03/03 11:32:27;;;;;;;28.00;14.73;;;2.80;99.90;;;;;;5049065;28;20041;-73
2023/03/03 11:35:18;;;;;;;26.90;14.25;;;2.80;99.90;;;;;;5028290;28;20060;-73
2023/03/03 11:38:06;;;;;;;33.60;15.45;;;2.90;99.90;;;;;;5035429;28;20033;-73
2023/03/03 11:40:45;;;;;;;34.05;15.15;;;2.90;99.90;;;;;;5042296;28;20087;-72
2023/03/03 11:43:15;;;;;;;27.42;14.90;;;2.90;99.90;;;;;;5044597;28;20166;-70
2023/03/03 11:45:52;;;;;;;27.10;14.90;;;2.90;99.90;;;;;;5039102;28;20497;-71
2023/03/03 11:48:36;;;;;;;24.98;13.77;;;2.90;99.90;;;;;;4322923;28;10000729;-71
2023/03/03 11:51:07;;;;;;;25.88;14.10;;;2.90;99.90;;;;;;5040014;28;20132;-70
2023/03/03 11:53:53;;;;;;;25.15;14.50;;;2.90;99.90;;;;;;5042759;28;20057;-71
2023/03/03 11:56:39;;;;;;;26.60;15.60;;;3.00;99.90;;;;;;5039658;28;20071;-71
2023/03/03 11:59:31;;;;;;;29.75;15.68;;;3.00;99.90;;;;;;5038996;28;20033;-70
2023/03/03 12:02:05;;;;;;;25.75;14.60;;;3.10;99.90;;;;;;5034101;28;20043;-70
2023/03/03 12:04:39;;;;;;;23.25;12.73;;;3.20;99.90;;;;;;5051954;28;20413;-71
2023/03/03 12:07:32;;;;;;;22.23;13.00;;;3.20;99.90;;;;;;5042587;28;20029;-71
2023/03/03 12:10:08;;;;;;;21.92;12.52;;;3.20;99.90;;;;;;5042423;28;20054;-71
2023/03/03 12:12:42;;;;;;;19.30;11.55;;;3.20;99.90;;;;;;5043642;28;20086;-71
2023/03/03 12:15:51;;;;;;;23.67;12.88;;;3.20;99.90;;;;;;5039947;28;20060;-70
2023/03/03 12:18:57;;;;;;;18.48;10.60;;;3.40;99.90;;;;;;5045869;28;20688;-71
2023/03/03 12:22:00;;;;;;;19.20;11.20;;;3.40;99.90;;;;;;5036790;28;20029;-72
2023/03/03 12:24:40;;;;;;;19.60;11.43;;;3.40;99.90;;;;;;5042344;28;20409;-71
2023/03/03 12:27:45;;;;;;;28.42;16.95;;;3.50;99.90;;;;;;5042491;28;20116;-71
2023/03/03 12:30:48;;;;;;;18.90;10.50;;;3.40;99.90;;;;;;5019415;28;20024;-71
2023/03/03 12:33:30;;;;;;;21.15;11.10;;;3.40;99.90;;;;;;5038694;28;20049;-72
2023/03/03 12:36:15;;;;;;;20.13;10.95;;;3.50;99.90;;;;;;5037929;28;20030;-72
2023/03/03 12:39:19;;;;;;;18.50;10.27;;;3.50;99.90;;;;;;5051849;28;20045;-72
2023/03/03 12:42:00;;;;;;;17.33;9.77;;;3.60;99.90;;;;;;5044293;28;20041;-72
2023/03/03 12:44:51;;;;;;;21.00;9.70;;;3.60;99.90;;;;;;5044067;28;20028;-72
2023/03/03 12:47:29;;;;;;;15.40;9.57;;;3.50;99.90;;;;;;5039572;28;20186;-72
2023/03/03 12:50:13;;;;;;;16.38;9.95;;;3.50;99.90;;;;;;5038934;28;20276;-71
2023/03/03 12:52:59;;;;;;;16.73;9.50;;;3.60;99.90;;;;;;5045956;28;20465;-72
2023/03/03 12:55:49;;;;;;;17.50;10.02;;;3.60;99.90;;;;;;5042624;28;20091;-71
2023/03/03 12:58:36;;;;;;;17.45;10.52;;;3.60;99.90;;;;;;5036640;28;20017;-71
2023/03/03 13:01:29;;;;;;;18.15;10.93;;;3.60;99.90;;;;;;5041561;28;20493;-71
2023/03/03 13:04:17;;;;;;;15.52;9.50;;;3.70;99.90;;;;;;5038965;28;20068;-71
2023/03/03 13:06:51;;;;;;;14.98;8.77;;;3.80;99.90;;;;;;5042921;28;20029;-70
2023/03/03 13:09:40;;;;;;;17.35;10.15;;;3.90;99.90;;;;;;5049678;28;20020;-71
2023/03/03 13:12:19;;;;;;;17.40;9.38;;;3.90;99.90;;;;;;5043996;28;20147;-71
2023/03/03 13:15:11;;;;;;;15.88;9.52;;;4.10;99.90;;;;;;5040107;28;20031;-72
2023/03/03 13:17:41;;;;;;;17.95;10.13;;;4.20;99.90;;;;;;5041273;28;20162;-71
2023/03/03 13:20:26;;;;;;;16.38;8.95;;;4.30;99.90;;;;;;5046029;28;20529;-70
2023/03/03 13:23:02;;;;;;;16.27;9.38;;;4.30;99.90;;;;;;5041280;28;20041;-71
2023/03/03 13:25:48;;;;;;;18.95;9.52;;;4.30;99.90;;;;;;5051097;28;20421;-71
2023/03/03 13:28:25;;;;;;;13.32;8.02;;;4.30;99.90;;;;;;5037041;28;20033;-71